Time;durP1;ratioP1;P1;durP2;ratioP2;P2;SDS_P1;SDS_P2;PMS_P1;PMS_P2;Temp;Humidity;BMP_temperature;BMP_pressure;BME280_temperature;BME280_humidity;BME280_pressure;Samples;Min_cycle;Max_cycle;Signal;HPM_P1;HPM_P2
2021/08/20 00:00:40;;;;;;;;;;;14.80;99.90;;;;;;5076151;28;19967;-67
2021/08/20 00:03:08;;;;;;;;;;;14.80;99.90;;;;;;5076774;28;20456;-66
2021/08/20 00:05:34;;;;;;;;;;;15.00;99.90;;;;;;5076253;28;19915;-66
2021/08/20 00:08:04;;;;;;;;;;;15.20;99.90;;;;;;5074786;28;19909;-67
2021/08/20 00:10:31;;;;;;;;;;;15.30;99.90;;;;;;5073867;28;19909;-67
2021/08/20 00:12:57;;;;;;;;;;;15.30;99.90;;;;;;5074778;28;19913;-66
2021/08/20 00:15:24;;;;;;;;;;;15.40;99.90;;;;;;5074588;28;19962;-67
2021/08/20 00:17:51;;;;;;;;;;;15.40;99.90;;;;;;5074193;28;19909;-66
2021/08/20 00:20:17;;;;;;;;;;;15.60;99.90;;;;;;5073780;28;20287;-66
2021/08/20 00:22:44;;;;;;;;;;;15.80;99.90;;;;;;5074691;28;19912;-67
2021/08/20 00:25:11;;;;;;;;;;;15.80;99.90;;;;;;5074595;28;19908;-66
2021/08/20 00:27:38;;;;;;;;;;;15.90;99.90;;;;;;5074268;28;19962;-66
2021/08/20 00:30:09;;;;;;;;;;;16.00;99.90;;;;;;5074688;28;19915;-67
2021/08/20 00:32:36;;;;;;;;;;;16.00;99.90;;;;;;5074723;28;20291;-67
2021/08/20 00:35:03;;;;;;;;;;;16.10;99.90;;;;;;5074361;28;20306;-66
2021/08/20 00:37:30;;;;;;;;;;;16.30;99.90;;;;;;5074206;28;19909;-66
2021/08/20 00:39:58;;;;;;;;;;;16.60;99.90;;;;;;5089791;28;20023;-67
2021/08/20 00:42:25;;;;;;;;;;;16.70;99.90;;;;;;5074979;28;19909;-66
2021/08/20 00:44:52;;;;;;;;;;;16.90;99.90;;;;;;5074207;28;20011;-66
2021/08/20 00:47:19;;;;;;;;;;;17.00;98.30;;;;;;5089453;28;19930;-67
2021/08/20 00:49:46;;;;;;;;;;;17.10;98.10;;;;;;5073933;28;19908;-66
2021/08/20 00:52:13;;;;;;;;;;;17.10;98.40;;;;;;5073878;28;19966;-66
2021/08/20 00:54:43;;;;;;;;;;;17.10;98.80;;;;;;5073662;28;20329;-67
2021/08/20 00:57:09;;;;;;;;;;;17.10;98.10;;;;;;5073862;28;20379;-67
2021/08/20 00:59:36;;;;;;;;;;;17.10;98.50;;;;;;5073705;28;19913;-66
2021/08/20 01:02:05;;;;;;;;;;;17.10;98.30;;;;;;5073696;28;19958;-66
2021/08/20 01:04:32;;;;;;;;;;;17.20;97.80;;;;;;5073703;28;19987;-67
2021/08/20 01:06:59;;;;;;;;;;;17.30;97.80;;;;;;5073123;28;19973;-67
2021/08/20 01:09:32;;;;;;;;;;;17.40;97.20;;;;;;5073897;28;19960;-66
2021/08/20 01:12:00;;;;;;;;;;;17.60;94.20;;;;;;5073711;28;20287;-67
2021/08/20 01:14:36;;;;;;;;;;;17.70;92.90;;;;;;5055674;28;19908;-66
2021/08/20 01:17:04;;;;;;;;;;;18.20;90.80;;;;;;5073484;28;19947;-66
2021/08/20 01:19:35;;;;;;;;;;;18.50;91.30;;;;;;5073063;28;20297;-66
2021/08/20 01:22:05;;;;;;;;;;;18.70;90.60;;;;;;5073656;28;19908;-66
2021/08/20 01:24:32;;;;;;;;;;;19.20;87.40;;;;;;5073454;28;19916;-66
2021/08/20 01:26:58;;;;;;;;;;;19.50;86.80;;;;;;5073452;28;20011;-67
2021/08/20 01:29:25;;;;;;;;;;;19.60;83.80;;;;;;5073263;28;19919;-67
2021/08/20 01:31:52;;;;;;;;;;;19.50;85.50;;;;;;5072896;28;19908;-67
2021/08/20 01:34:19;;;;;;;;;;;19.50;85.00;;;;;;5073349;28;20282;-66
2021/08/20 01:36:46;;;;;;;;;;;19.40;81.90;;;;;;5074105;28;19932;-66
2021/08/20 01:39:12;;;;;;;;;;;19.10;84.20;;;;;;5073790;28;19916;-66
2021/08/20 01:41:39;;;;;;;;;;;19.00;83.00;;;;;;5088361;28;19913;-66
2021/08/20 01:44:06;;;;;;;;;;;18.90;81.50;;;;;;5072664;28;20384;-66
2021/08/20 01:46:33;;;;;;;;;;;18.80;81.10;;;;;;5072258;28;19916;-66
2021/08/20 01:49:00;;;;;;;;;;;18.80;80.90;;;;;;5072822;28;19912;-65
2021/08/20 01:51:31;;;;;;;;;;;18.70;83.10;;;;;;5072719;28;19917;-66
2021/08/20 01:53:59;;;;;;;;;;;18.90;81.10;;;;;;5072555;28;19916;-66
2021/08/20 01:56:29;;;;;;;;;;;19.10;79.50;;;;;;5072842;28;19915;-66
2021/08/20 01:58:58;;;;;;;;;;;18.90;79.50;;;;;;5073055;28;19916;-65
2021/08/20 02:01:25;;;;;;;;;;;19.00;80.60;;;;;;5071975;28;19923;-66
2021/08/20 02:03:52;;;;;;;;;;;19.20;78.70;;;;;;5072511;28;19962;-66
2021/08/20 02:06:19;;;;;;;;;;;19.10;78.20;;;;;;5072728;28;20367;-64
2021/08/20 02:08:50;;;;;;;;;;;18.90;77.80;;;;;;5072194;28;19909;-66
2021/08/20 02:11:17;;;;;;;;;;;18.70;78.40;;;;;;5072820;28;19912;-65
2021/08/20 02:13:45;;;;;;;;;;;18.70;80.10;;;;;;5072383;28;19999;-66
2021/08/20 02:16:12;;;;;;;;;;;18.80;80.00;;;;;;5072031;28;19912;-65
2021/08/20 02:18:39;;;;;;;;;;;18.90;78.90;;;;;;5072157;28;19931;-65
2021/08/20 02:21:08;;;;;;;;;;;18.90;79.80;;;;;;5072808;28;19923;-66
2021/08/20 02:23:37;;;;;;;;;;;18.90;78.10;;;;;;5072074;28;20385;-66
2021/08/20 02:26:03;;;;;;;;;;;18.80;78.70;;;;;;5072546;28;19912;-66
2021/08/20 02:28:30;;;;;;;;;;;18.90;77.70;;;;;;5072382;28;20363;-66
2021/08/20 02:30:57;;;;;;;;;;;18.90;80.00;;;;;;5072254;28;19908;-65
2021/08/20 02:33:23;;;;;;;;;;;18.90;78.70;;;;;;5072487;28;20415;-65
2021/08/20 02:35:50;;;;;;;;;;;18.80;79.80;;;;;;5072298;28;20385;-66
2021/08/20 02:38:18;;;;;;;;;;;18.80;78.80;;;;;;5072312;28;19908;-66
2021/08/20 02:40:44;;;;;;;;;;;18.80;78.40;;;;;;5072528;28;20286;-65
2021/08/20 02:43:14;;;;;;;;;;;18.80;77.70;;;;;;5072364;28;19908;-66
2021/08/20 02:45:42;;;;;;;;;;;18.70;77.60;;;;;;5072119;28;19913;-66
2021/08/20 02:48:09;;;;;;;;;;;18.70;78.50;;;;;;5087691;28;20367;-65
2021/08/20 02:50:38;;;;;;;;;;;18.70;77.60;;;;;;5071149;28;19916;-66
2021/08/20 02:53:05;;;;;;;;;;;18.60;77.00;;;;;;5072027;28;20382;-66
2021/08/20 02:55:33;;;;;;;;;;;18.60;78.30;;;;;;5072119;28;20380;-66
2021/08/20 02:58:00;;;;;;;;;;;18.50;79.60;;;;;;5070991;28;19908;-66
2021/08/20 03:00:26;;;;;;;;;;;18.50;79.60;;;;;;5072393;28;19927;-66
2021/08/20 03:02:53;;;;;;;;;;;18.60;78.10;;;;;;5072318;28;19952;-65
2021/08/20 03:05:20;;;;;;;;;;;18.70;78.60;;;;;;5072325;28;19909;-66
2021/08/20 03:07:47;;;;;;;;;;;18.70;77.90;;;;;;5072685;28;19909;-66
2021/08/20 03:10:13;;;;;;;;;;;18.90;77.10;;;;;;5073020;28;19914;-66
2021/08/20 03:12:40;;;;;;;;;;;18.90;77.90;;;;;;5074985;28;20287;-66
2021/08/20 03:15:08;;;;;;;;;;;19.00;77.20;;;;;;5072146;28;19909;-66
2021/08/20 03:17:34;;;;;;;;;;;19.10;74.90;;;;;;5071640;28;19948;-66
2021/08/20 03:20:01;;;;;;;;;;;19.30;75.70;;;;;;5071426;28;19913;-66
2021/08/20 03:22:28;;;;;;;;;;;19.20;76.40;;;;;;5071821;28;19962;-66
2021/08/20 03:24:54;;;;;;;;;;;19.10;76.00;;;;;;5071895;28;19909;-67
2021/08/20 03:27:21;;;;;;;;;;;19.00;77.60;;;;;;5071849;28;19970;-66
2021/08/20 03:29:48;;;;;;;;;;;19.10;75.20;;;;;;5072921;28;20286;-65
2021/08/20 03:32:14;;;;;;;;;;;19.00;75.50;;;;;;5075575;28;20371;-65
2021/08/20 03:34:41;;;;;;;;;;;18.90;75.80;;;;;;5075383;28;20379;-65
2021/08/20 03:37:08;;;;;;;;;;;19.10;75.60;;;;;;5075315;28;19912;-66
2021/08/20 03:39:35;;;;;;;;;;;19.30;74.80;;;;;;5075391;28;19943;-67
2021/08/20 03:42:01;;;;;;;;;;;19.20;76.40;;;;;;5075381;28;19912;-65
2021/08/20 03:44:28;;;;;;;;;;;19.30;75.90;;;;;;5075209;28;19923;-67
2021/08/20 03:46:55;;;;;;;;;;;19.10;75.20;;;;;;5074574;28;19920;-66
2021/08/20 03:49:21;;;;;;;;;;;18.90;76.40;;;;;;5074995;28;20419;-65
2021/08/20 03:51:48;;;;;;;;;;;18.80;76.30;;;;;;5074841;28;19963;-65
2021/08/20 03:54:15;;;;;;;;;;;19.00;77.60;;;;;;5075401;28;19909;-65
2021/08/20 03:56:41;;;;;;;;;;;19.40;79.10;;;;;;5075029;28;19912;-66
2021/08/20 03:59:08;;;;;;;;;;;19.50;84.90;;;;;;5075088;28;20321;-66
2021/08/20 04:01:35;;;;;;;;;;;19.30;85.80;;;;;;5074647;28;19967;-66
2021/08/20 04:04:01;;;;;;;;;;;19.20;85.90;;;;;;5075374;28;19923;-66
2021/08/20 04:06:29;;;;;;;;;;;19.30;86.40;;;;;;5075000;28;19916;-65
2021/08/20 04:08:56;;;;;;;;;;;19.40;86.10;;;;;;5074881;28;19916;-66
2021/08/20 04:11:22;;;;;;;;;;;19.30;86.30;;;;;;5074703;28;19908;-66
2021/08/20 04:13:49;;;;;;;;;;;19.30;85.40;;;;;;5074705;28;20014;-66
2021/08/20 04:16:16;;;;;;;;;;;19.20;83.70;;;;;;5074891;28;20003;-65
2021/08/20 04:18:43;;;;;;;;;;;19.10;83.60;;;;;;5074621;28;20356;-65
2021/08/20 04:21:10;;;;;;;;;;;19.30;83.10;;;;;;5074182;28;19916;-65
2021/08/20 04:23:36;;;;;;;;;;;19.20;82.80;;;;;;5073364;28;19912;-66
2021/08/20 04:26:03;;;;;;;;;;;19.10;83.20;;;;;;5074723;28;19909;-66
2021/08/20 04:28:30;;;;;;;;;;;19.10;83.40;;;;;;5056528;28;20268;-66
2021/08/20 04:30:56;;;;;;;;;;;19.20;82.50;;;;;;5074344;28;19912;-66
2021/08/20 04:33:23;;;;;;;;;;;19.20;82.80;;;;;;5074596;28;19995;-66
2021/08/20 04:35:51;;;;;;;;;;;19.20;81.50;;;;;;5074244;28;19912;-66
2021/08/20 04:38:18;;;;;;;;;;;19.20;82.20;;;;;;5089817;28;19968;-66
2021/08/20 04:40:45;;;;;;;;;;;19.20;82.40;;;;;;5074296;28;19923;-65
2021/08/20 04:43:11;;;;;;;;;;;19.30;82.00;;;;;;5074511;28;19931;-65
2021/08/20 04:45:38;;;;;;;;;;;19.30;82.80;;;;;;5074843;28;19913;-65
2021/08/20 04:48:05;;;;;;;;;;;19.40;83.30;;;;;;5075261;28;20279;-66
2021/08/20 04:50:31;;;;;;;;;;;19.40;82.30;;;;;;5074210;28;19976;-65
2021/08/20 04:52:58;;;;;;;;;;;19.40;82.50;;;;;;5074062;28;20441;-66
2021/08/20 04:55:25;;;;;;;;;;;19.50;81.70;;;;;;5073981;28;19931;-66
2021/08/20 04:57:52;;;;;;;;;;;19.40;82.00;;;;;;5073777;28;19914;-65
2021/08/20 05:00:18;;;;;;;;;;;19.30;82.00;;;;;;5074000;28;19962;-66
2021/08/20 05:02:45;;;;;;;;;;;19.40;81.70;;;;;;5073828;28;19923;-66
2021/08/20 05:05:12;;;;;;;;;;;19.40;81.70;;;;;;5074084;28;20424;-66
2021/08/20 05:07:38;;;;;;;;;;;19.30;81.50;;;;;;5073936;28;19909;-65
2021/08/20 05:10:10;;;;;;;;;;;19.20;82.90;;;;;;5073977;28;19910;-66
2021/08/20 05:12:37;;;;;;;;;;;19.30;82.40;;;;;;5073889;28;19918;-65
2021/08/20 05:15:09;;;;;;;;;;;19.40;84.10;;;;;;5073912;28;19912;-66
2021/08/20 05:17:37;;;;;;;;;;;19.30;85.20;;;;;;5055775;28;19962;-66
2021/08/20 05:20:04;;;;;;;;;;;19.20;86.20;;;;;;5073514;28;19920;-66
2021/08/20 05:22:44;;;;;;;;;;;19.20;86.90;;;;;;5072520;28;20343;-65
2021/08/20 05:25:15;;;;;;;;;;;19.10;88.00;;;;;;5073941;28;19909;-66
2021/08/20 05:27:42;;;;;;;;;;;19.10;90.00;;;;;;5072033;28;19962;-65
2021/08/20 05:30:09;;;;;;;;;;;19.10;90.70;;;;;;5073317;28;20367;-65
2021/08/20 05:32:36;;;;;;;;;;;19.10;91.00;;;;;;5073326;28;19961;-66
2021/08/20 05:35:04;;;;;;;;;;;19.10;91.10;;;;;;5073742;28;20385;-66
2021/08/20 05:37:30;;;;;;;;;;;19.10;90.80;;;;;;5072964;28;19969;-66
2021/08/20 05:39:57;;;;;;;;;;;19.00;91.40;;;;;;5073169;28;20448;-67
2021/08/20 05:42:24;;;;;;;;;;;18.90;91.60;;;;;;5073190;28;19908;-65
2021/08/20 05:44:50;;;;;;;;;;;19.00;91.70;;;;;;5073072;28;19909;-66
2021/08/20 05:47:17;;;;;;;;;;;19.00;92.00;;;;;;5073202;28;20330;-66
2021/08/20 05:49:44;;;;;;;;;;;19.00;92.30;;;;;;5072804;28;19912;-66
2021/08/20 05:52:10;;;;;;;;;;;18.90;92.50;;;;;;5071377;28;19909;-66
2021/08/20 05:54:37;;;;;;;;;;;18.90;92.00;;;;;;5072896;28;20026;-66
2021/08/20 05:57:04;;;;;;;;;;;18.90;92.40;;;;;;5072961;28;20375;-67
2021/08/20 05:59:30;;;;;;;;;;;18.80;93.60;;;;;;5072698;28;20282;-65
2021/08/20 06:01:57;;;;;;;;;;;18.70;94.10;;;;;;5072793;28;19917;-65
2021/08/20 06:04:25;;;;;;;;;;;18.60;95.10;;;;;;5072831;28;19916;-65
2021/08/20 06:06:52;;;;;;;;;;;18.50;95.10;;;;;;5073127;28;19999;-65
2021/08/20 06:09:18;;;;;;;;;;;18.50;95.50;;;;;;5072526;28;19919;-66
2021/08/20 06:11:45;;;;;;;;;;;18.40;94.80;;;;;;5072454;28;19999;-66
2021/08/20 06:14:12;;;;;;;;;;;18.40;94.20;;;;;;5072557;28;19955;-66
2021/08/20 06:16:39;;;;;;;;;;;18.30;94.00;;;;;;5073874;28;19909;-67
2021/08/20 06:19:06;;;;;;;;;;;18.30;93.30;;;;;;5075185;28;19916;-66
2021/08/20 06:21:33;;;;;;;;;;;18.30;93.60;;;;;;5076088;28;19923;-68
2021/08/20 06:24:03;;;;;;;;;;;18.30;94.40;;;;;;5074200;28;19909;-66
2021/08/20 06:26:30;;;;;;;;;;;18.30;95.10;;;;;;5072591;28;20355;-66
2021/08/20 06:28:58;;;;;;;;;;;18.20;95.50;;;;;;5072507;28;20288;-66
2021/08/20 06:31:24;;;;;;;;;;;18.10;95.60;;;;;;5072450;28;19915;-66
2021/08/20 06:33:53;;;;;;;;;;;18.10;94.70;;;;;;5072099;28;20375;-67
2021/08/20 06:36:20;;;;;;;;;;;18.10;94.10;;;;;;5072273;28;19998;-65
2021/08/20 06:38:48;;;;;;;;;;;18.00;94.60;;;;;;5072682;28;19908;-65
2021/08/20 06:41:14;;;;;;;;;;;18.10;95.20;;;;;;5072463;28;20286;-66
2021/08/20 06:43:41;;;;;;;;;;;18.00;95.60;;;;;;5072252;28;19980;-66
2021/08/20 06:46:08;;;;;;;;;;;17.90;96.30;;;;;;5072131;28;19974;-66
2021/08/20 06:48:34;;;;;;;;;;;17.90;96.90;;;;;;5072416;28;19908;-66
2021/08/20 06:51:04;;;;;;;;;;;17.80;97.50;;;;;;5070689;28;19948;-66
2021/08/20 06:53:30;;;;;;;;;;;17.90;98.00;;;;;;5070364;28;19991;-65
2021/08/20 06:55:58;;;;;;;;;;;17.80;98.30;;;;;;5070017;28;19913;-66
2021/08/20 06:58:25;;;;;;;;;;;17.80;98.80;;;;;;5070278;28;20294;-66
2021/08/20 07:00:51;;;;;;;;;;;17.80;98.50;;;;;;5070222;28;19917;-66
2021/08/20 07:03:18;;;;;;;;;;;17.80;98.40;;;;;;5070083;28;19913;-67
2021/08/20 07:05:45;;;;;;;;;;;17.70;98.70;;;;;;5073015;28;19951;-66
2021/08/20 07:08:13;;;;;;;;;;;17.60;98.90;;;;;;5074280;28;19912;-67
2021/08/20 07:10:39;;;;;;;;;;;17.60;98.80;;;;;;5074080;28;19912;-68
2021/08/20 07:13:07;;;;;;;;;;;17.50;99.00;;;;;;5074092;28;19952;-66
2021/08/20 07:15:34;;;;;;;;;;;17.50;99.20;;;;;;5074258;28;19912;-66
2021/08/20 07:18:01;;;;;;;;;;;17.50;99.10;;;;;;5074011;28;20375;-66
2021/08/20 07:20:28;;;;;;;;;;;17.50;99.20;;;;;;5073496;28;19921;-66
2021/08/20 07:22:54;;;;;;;;;;;17.50;99.30;;;;;;5073549;28;19915;-66
2021/08/20 07:25:21;;;;;;;;;;;17.50;99.00;;;;;;5073950;28;19931;-66
2021/08/20 07:27:48;;;;;;;;;;;17.40;99.00;;;;;;5073487;28;19935;-68
2021/08/20 07:30:16;;;;;;;;;;;17.40;98.90;;;;;;5073705;28;19917;-65
2021/08/20 07:32:44;;;;;;;;;;;17.40;99.10;;;;;;5089399;28;20007;-67
2021/08/20 07:35:11;;;;;;;;;;;17.30;98.80;;;;;;5073016;28;19954;-67
2021/08/20 07:37:38;;;;;;;;;;;17.30;99.10;;;;;;5073995;28;20386;-67
2021/08/20 07:40:06;;;;;;;;;;;17.30;99.20;;;;;;5073333;28;19916;-66
2021/08/20 07:42:32;;;;;;;;;;;17.20;99.30;;;;;;5071847;28;20355;-66
2021/08/20 07:45:00;;;;;;;;;;;17.20;99.60;;;;;;5055659;28;19913;-67
2021/08/20 07:47:28;;;;;;;;;;;17.20;99.70;;;;;;5073476;28;19920;-67
2021/08/20 07:49:54;;;;;;;;;;;17.20;99.90;;;;;;5072740;28;19908;-67
2021/08/20 07:52:21;;;;;;;;;;;17.10;99.90;;;;;;5076185;28;19912;-66
2021/08/20 07:54:49;;;;;;;;;;;17.10;99.90;;;;;;5075929;28;19934;-66
2021/08/20 07:57:16;;;;;;;;;;;17.10;99.90;;;;;;5074490;28;19916;-66
2021/08/20 07:59:42;;;;;;;;;;;17.10;99.90;;;;;;5073009;28;19916;-66
2021/08/20 08:02:09;;;;;;;;;;;17.10;99.90;;;;;;5072753;28;19909;-66
2021/08/20 08:04:36;;;;;;;;;;;17.00;99.90;;;;;;5088978;28;19917;-66
2021/08/20 08:07:03;;;;;;;;;;;17.10;99.90;;;;;;5072327;28;19909;-66
2021/08/20 08:09:31;;;;;;;;;;;17.10;99.90;;;;;;5072236;28;19912;-66
2021/08/20 08:11:57;;;;;;;;;;;17.00;99.90;;;;;;5071935;28;19915;-65
2021/08/20 08:14:24;;;;;;;;;;;16.90;99.90;;;;;;5072340;28;20382;-66
2021/08/20 08:16:50;;;;;;;;;;;16.90;99.90;;;;;;5072371;28;19946;-66
2021/08/20 08:19:19;;;;;;;;;;;16.90;99.90;;;;;;5072760;28;19916;-66
2021/08/20 08:21:46;;;;;;;;;;;16.90;99.90;;;;;;5072455;28;19916;-67
2021/08/20 08:24:13;;;;;;;;;;;16.90;99.90;;;;;;5072506;28;19981;-67
2021/08/20 08:26:39;;;;;;;;;;;16.90;99.90;;;;;;5071934;28;20256;-66
2021/08/20 08:29:06;;;;;;;;;;;16.80;99.90;;;;;;5071927;28;19993;-66
2021/08/20 08:31:32;;;;;;;;;;;16.80;99.90;;;;;;5071914;28;19919;-66
2021/08/20 08:33:59;;;;;;;;;;;16.80;99.90;;;;;;5072213;28;19917;-66
2021/08/20 08:36:26;;;;;;;;;;;16.80;99.90;;;;;;5072081;28;19916;-66
2021/08/20 08:38:52;;;;;;;;;;;16.70;99.90;;;;;;5071777;28;19915;-66
2021/08/20 08:41:19;;;;;;;;;;;16.70;99.90;;;;;;5071822;28;20383;-66
2021/08/20 08:43:46;;;;;;;;;;;16.60;99.90;;;;;;5072017;28;20295;-66
2021/08/20 08:46:16;;;;;;;;;;;16.60;99.90;;;;;;5071886;28;19916;-66
2021/08/20 08:48:42;;;;;;;;;;;16.50;99.90;;;;;;5072260;28;19920;-66
2021/08/20 08:51:12;;;;;;;;;;;16.50;99.90;;;;;;5071816;28;19932;-65
2021/08/20 08:53:39;;;;;;;;;;;16.60;99.90;;;;;;5071421;28;19917;-65
2021/08/20 08:56:06;;;;;;;;;;;16.60;99.90;;;;;;5071882;28;20359;-65
2021/08/20 08:58:33;;;;;;;;;;;16.60;99.90;;;;;;5071907;28;19912;-66
2021/08/20 09:01:00;;;;;;;;;;;16.50;99.90;;;;;;5071658;28;19989;-65
2021/08/20 09:03:28;;;;;;;;;;;16.50;99.90;;;;;;5071874;28;20378;-66
2021/08/20 09:05:55;;;;;;;;;;;16.40;99.90;;;;;;5072438;28;19909;-66
2021/08/20 09:08:23;;;;;;;;;;;16.40;99.90;;;;;;5073868;28;19951;-66
2021/08/20 09:10:51;;;;;;;;;;;16.30;99.90;;;;;;5055818;28;20283;-66
2021/08/20 09:13:18;;;;;;;;;;;16.30;99.90;;;;;;5073642;28;19920;-66
2021/08/20 09:15:47;;;;;;;;;;;16.20;99.90;;;;;;5073457;28;19954;-66
2021/08/20 09:18:22;;;;;;;;;;;16.30;99.90;;;;;;5073478;28;19908;-65
2021/08/20 09:20:49;;;;;;;;;;;16.30;99.90;;;;;;5073114;28;20370;-66
2021/08/20 09:23:20;;;;;;;;;;;16.30;99.90;;;;;;5073354;28;20371;-65
2021/08/20 09:25:47;;;;;;;;;;;16.20;99.90;;;;;;5055276;28;20011;-65
2021/08/20 09:28:18;;;;;;;;;;;16.30;99.90;;;;;;5072699;28;19909;-66
2021/08/20 09:30:54;;;;;;;;;;;16.20;99.90;;;;;;5073174;28;19908;-66
2021/08/20 09:33:41;;;;;;;;;;;16.10;99.90;;;;;;5073298;28;19912;-65
2021/08/20 09:36:12;;;;;;;;;;;16.00;99.90;;;;;;5062409;28;19912;-65
2021/08/20 09:38:43;;;;;;;;;;;16.10;99.90;;;;;;5073083;28;20278;-66
2021/08/20 09:41:12;;;;;;;;;;;16.10;99.90;;;;;;5072978;28;20334;-66
2021/08/20 09:43:41;;;;;;;;;;;16.10;99.90;;;;;;5072677;28;19944;-65
2021/08/20 09:46:07;;;;;;;;;;;16.10;99.90;;;;;;5072703;28;19992;-65
2021/08/20 09:48:46;;;;;;;;;;;16.00;99.90;;;;;;5073073;28;20011;-66
2021/08/20 09:51:31;;;;;;;;;;;16.00;99.90;;;;;;5055024;28;19908;-66
2021/08/20 09:54:03;;;;;;;;;;;16.00;99.90;;;;;;5072822;28;19936;-66
2021/08/20 09:56:29;;;;;;;;;;;16.10;99.90;;;;;;5072972;28;20266;-66
2021/08/20 09:59:00;;;;;;;;;;;16.00;99.90;;;;;;5072830;28;19940;-66
2021/08/20 10:01:31;;;;;;;;;;;16.00;99.90;;;;;;5072700;28;20003;-66
2021/08/20 10:03:58;;;;;;;;;;;16.00;99.90;;;;;;5072750;28;19958;-66
2021/08/20 10:06:26;;;;;;;;;;;15.90;99.90;;;;;;5072537;28;19908;-66
2021/08/20 10:08:53;;;;;;;;;;;16.00;99.90;;;;;;5072668;28;19908;-66
2021/08/20 10:11:25;;;;;;;;;;;16.00;99.90;;;;;;5072595;28;19915;-66
2021/08/20 10:13:52;;;;;;;;;;;16.00;99.90;;;;;;5072498;28;19915;-66
2021/08/20 10:16:19;;;;;;;;;;;15.90;99.90;;;;;;5072596;28;19918;-66
2021/08/20 10:18:46;;;;;;;;;;;15.90;99.90;;;;;;5072645;28;20362;-66
2021/08/20 10:21:13;;;;;;;;;;;15.80;99.90;;;;;;5072360;28;19923;-66
2021/08/20 10:23:40;;;;;;;;;;;15.90;99.90;;;;;;5054340;28;19972;-66
2021/08/20 10:26:07;;;;;;;;;;;16.00;99.90;;;;;;5072918;28;19947;-67
2021/08/20 10:28:35;;;;;;;;;;;15.90;99.90;;;;;;5072782;28;19908;-67
2021/08/20 10:31:02;;;;;;;;;;;15.90;99.90;;;;;;5072979;28;20468;-67
2021/08/20 10:33:37;;;;;;;;;;;15.90;99.90;;;;;;5072390;28;19913;-67
2021/08/20 10:36:04;;;;;;;;;;;15.80;99.90;;;;;;5071605;28;19933;-67
2021/08/20 10:38:41;;;;;;;;;;;15.80;99.90;;;;;;5072997;28;19919;-67
2021/08/20 10:41:09;;;;;;;;;;;15.80;99.90;;;;;;5050434;28;19920;-67
2021/08/20 10:43:57;;;;;;;;;;;15.70;99.90;;;;;;5070090;28;19908;-66
2021/08/20 10:46:37;;;;;;;;;;;15.80;99.90;;;;;;5069986;28;19912;-66
2021/08/20 10:49:21;;;;;;;;;;;15.80;99.90;;;;;;5070229;28;19916;-67
2021/08/20 10:51:58;;;;;;;;;;;15.80;99.90;;;;;;5070066;28;19951;-65
2021/08/20 10:54:31;;;;;;;;;;;15.80;99.90;;;;;;5070102;28;19909;-66
2021/08/20 10:56:58;;;;;;;;;;;15.70;99.90;;;;;;5070220;28;20398;-66
2021/08/20 10:59:37;;;;;;;;;;;15.70;99.90;;;;;;5069596;28;19912;-66
2021/08/20 11:02:19;;;;;;;;;;;15.70;99.90;;;;;;5070220;28;19921;-66
2021/08/20 11:05:04;;;;;;;;;;;15.70;99.90;;;;;;5070578;28;20472;-66
2021/08/20 11:07:42;;;;;;;;;;;15.80;99.90;;;;;;5069818;28;20002;-67
2021/08/20 11:10:12;;;;;;;;;;;15.80;99.90;;;;;;5070140;28;19915;-67
2021/08/20 11:12:40;;;;;;;;;;;15.90;99.90;;;;;;5070142;28;20355;-67
2021/08/20 11:15:22;;;;;;;;;;;15.90;99.90;;;;;;5070005;28;19924;-67
2021/08/20 11:17:52;;;;;;;;;;;15.90;99.90;;;;;;5069659;28;19914;-66
2021/08/20 11:20:21;;;;;;;;;;;15.90;99.90;;;;;;5069178;28;20278;-66
2021/08/20 11:23:12;;;;;;;;;;;16.00;99.90;;;;;;5069709;28;19984;-65
2021/08/20 11:25:44;;;;;;;;;;;15.90;99.90;;;;;;5069568;28;20364;-65
2021/08/20 11:28:26;;;;;;;;;;;15.90;99.90;;;;;;5069878;28;20470;-66
2021/08/20 11:30:57;;;;;;;;;;;16.00;99.90;;;;;;5069239;28;19916;-66
2021/08/20 11:33:24;;;;;;;;;;;16.00;99.90;;;;;;5069256;28;20474;-65
2021/08/20 11:35:52;;;;;;;;;;;16.10;99.90;;;;;;5069282;28;19909;-65
2021/08/20 11:38:39;;;;;;;;;;;16.10;99.90;;;;;;5069514;28;20018;-65
2021/08/20 11:41:23;;;;;;;;;;;16.10;99.90;;;;;;5069334;28;19970;-66
2021/08/20 11:43:51;;;;;;;;;;;16.10;99.90;;;;;;5069361;28;19956;-65
2021/08/20 11:46:18;;;;;;;;;;;16.10;99.90;;;;;;5068805;28;20317;-65
2021/08/20 11:48:52;;;;;;;;;;;16.10;99.90;;;;;;5069404;28;19912;-64
2021/08/20 11:51:25;;;;;;;;;;;16.10;99.90;;;;;;5071892;28;20351;-66
2021/08/20 11:53:52;;;;;;;;;;;16.00;99.90;;;;;;5072975;28;19909;-66
2021/08/20 11:56:18;;;;;;;;;;;16.00;99.90;;;;;;5073138;28;19947;-67
2021/08/20 11:58:45;;;;;;;;;;;16.00;99.90;;;;;;5072158;28;19917;-66
2021/08/20 12:01:28;;;;;;;;;;;16.00;99.90;;;;;;5072769;28;19916;-67
2021/08/20 12:03:58;;;;;;;;;;;16.00;99.90;;;;;;5073041;28;19908;-65
2021/08/20 12:06:26;;;;;;;;;;;16.00;99.90;;;;;;5073010;28;19919;-64
2021/08/20 12:08:56;;;;;;;;;;;15.90;99.90;;;;;;5072863;28;19965;-65
2021/08/20 12:11:24;;;;;;;;;;;16.00;99.90;;;;;;5072420;28;19987;-65
2021/08/20 12:13:52;;;;;;;;;;;15.90;99.90;;;;;;5071914;28;19948;-67
2021/08/20 12:16:34;;;;;;;;;;;16.00;99.90;;;;;;5072881;28;19963;-66
2021/08/20 12:19:17;;;;;;;;;;;16.00;99.90;;;;;;5072641;28;19909;-66
2021/08/20 12:21:47;;;;;;;;;;;16.00;99.60;;;;;;5072194;28;19916;-66
2021/08/20 12:24:15;;;;;;;;;;;16.00;99.00;;;;;;5072171;28;19912;-66
2021/08/20 12:26:42;;;;;;;;;;;16.00;99.20;;;;;;5072530;28;19999;-66
2021/08/20 12:29:15;;;;;;;;;;;16.00;99.40;;;;;;5072062;28;19912;-66
2021/08/20 12:31:53;;;;;;;;;;;16.10;98.70;;;;;;5072089;28;19909;-66
2021/08/20 12:34:25;;;;;;;;;;;16.10;98.60;;;;;;5072156;28;19916;-66
2021/08/20 12:36:56;;;;;;;;;;;16.10;98.00;;;;;;5071926;28;19908;-66
2021/08/20 12:39:32;;;;;;;;;;;16.10;97.20;;;;;;5072317;28;19962;-66
2021/08/20 12:42:17;;;;;;;;;;;16.10;96.20;;;;;;5072259;28;20274;-66
2021/08/20 12:44:44;;;;;;;;;;;16.20;95.50;;;;;;5071687;28;19982;-66
2021/08/20 12:47:11;;;;;;;;;;;16.20;95.00;;;;;;5071933;28;19948;-67
2021/08/20 12:49:55;;;;;;;;;;;16.20;95.30;;;;;;5071401;28;19965;-66
2021/08/20 12:52:28;;;;;;;;;;;16.20;95.70;;;;;;5072052;28;19909;-66
2021/08/20 12:54:55;;;;;;;;;;;16.20;96.30;;;;;;5072021;28;19908;-65
2021/08/20 12:57:22;;;;;;;;;;;16.20;96.40;;;;;;5071965;28;19915;-66
2021/08/20 12:59:49;;;;;;;;;;;16.20;96.40;;;;;;5071032;28;19995;-66
2021/08/20 13:02:16;;;;;;;;;;;16.20;96.90;;;;;;5070516;28;19973;-66
2021/08/20 13:04:42;;;;;;;;;;;16.20;97.00;;;;;;5071072;28;19922;-66
2021/08/20 13:07:09;;;;;;;;;;;16.20;96.80;;;;;;5071570;28;19931;-66
2021/08/20 13:09:36;;;;;;;;;;;16.10;96.90;;;;;;5071333;28;20302;-66
2021/08/20 13:12:03;;;;;;;;;;;16.10;96.30;;;;;;5071783;28;20359;-66
2021/08/20 13:14:32;;;;;;;;;;;16.00;96.40;;;;;;5071025;28;20274;-66
2021/08/20 13:16:59;;;;;;;;;;;16.00;95.50;;;;;;5071056;28;19948;-66
2021/08/20 13:19:25;;;;;;;;;;;16.00;95.40;;;;;;5071360;28;19909;-66
2021/08/20 13:21:52;;;;;;;;;;;15.90;94.80;;;;;;5071115;28;20019;-66
2021/08/20 13:24:19;;;;;;;;;;;16.00;94.80;;;;;;5071293;28;19909;-67
2021/08/20 13:26:45;;;;;;;;;;;16.00;94.80;;;;;;5071303;28;19913;-66
2021/08/20 13:29:12;;;;;;;;;;;16.00;96.00;;;;;;5070223;28;19916;-66
2021/08/20 13:31:39;;;;;;;;;;;16.10;95.40;;;;;;5071125;28;19947;-66
2021/08/20 13:34:05;;;;;;;;;;;16.00;95.40;;;;;;5071188;28;20371;-66
2021/08/20 13:36:32;;;;;;;;;;;16.00;93.90;;;;;;5070931;28;19916;-66
2021/08/20 13:38:58;;;;;;;;;;;15.90;93.50;;;;;;5071025;28;19919;-66
2021/08/20 13:41:30;;;;;;;;;;;15.80;94.70;;;;;;5071036;28;19916;-65
2021/08/20 13:43:56;;;;;;;;;;;15.70;94.00;;;;;;5070258;28;19920;-66
2021/08/20 13:46:23;;;;;;;;;;;15.70;93.70;;;;;;5070678;28;19912;-65
2021/08/20 13:48:52;;;;;;;;;;;15.60;93.40;;;;;;5070596;28;19939;-66
2021/08/20 13:51:19;;;;;;;;;;;15.60;93.10;;;;;;5070664;28;19919;-65
2021/08/20 13:53:46;;;;;;;;;;;15.60;92.40;;;;;;5070475;28;19912;-67
2021/08/20 13:56:12;;;;;;;;;;;15.70;91.90;;;;;;5070483;28;19912;-65
2021/08/20 13:58:40;;;;;;;;;;;15.70;91.50;;;;;;5070480;28;19916;-65
2021/08/20 14:01:08;;;;;;;;;;;15.80;91.70;;;;;;5070627;28;20019;-65
2021/08/20 14:03:34;;;;;;;;;;;15.80;92.10;;;;;;5070317;28;19912;-65
2021/08/20 14:06:02;;;;;;;;;;;15.80;92.30;;;;;;5070622;28;19923;-65
2021/08/20 14:08:30;;;;;;;;;;;15.70;92.60;;;;;;5068914;28;20375;-65
2021/08/20 14:10:56;;;;;;;;;;;15.70;92.30;;;;;;5070558;28;20034;-64
2021/08/20 14:13:23;;;;;;;;;;;15.70;92.40;;;;;;5069755;28;20318;-66
2021/08/20 14:15:50;;;;;;;;;;;15.60;92.00;;;;;;5070323;28;19908;-66
2021/08/20 14:18:16;;;;;;;;;;;15.60;91.80;;;;;;5070924;28;19912;-66
2021/08/20 14:20:43;;;;;;;;;;;15.70;91.50;;;;;;5070389;28;19935;-67
2021/08/20 14:23:10;;;;;;;;;;;15.70;91.70;;;;;;5070150;28;19912;-66